sensor_id;sensor_type;location;lat;lon;timestamp;pressure;altitude;pressure_sealevel;temperature;humidity
76726;BME280;65651;53.154;17.916;2022-12-17T00:01:33;101437.40;;;-5.14;81.75
76726;BME280;65651;53.154;17.916;2022-12-17T00:04:19;101440.73;;;-5.16;81.68
76726;BME280;65651;53.154;17.916;2022-12-17T00:07:05;101440.39;;;-5.16;81.69
76726;BME280;65651;53.154;17.916;2022-12-17T00:09:50;101441.57;;;-5.13;81.59
76726;BME280;65651;53.154;17.916;2022-12-17T00:12:40;101437.11;;;-5.09;81.55
76726;BME280;65651;53.154;17.916;2022-12-17T00:15:27;101439.03;;;-5.08;81.73
76726;BME280;65651;53.154;17.916;2022-12-17T00:18:13;101443.52;;;-5.04;81.69
76726;BME280;65651;53.154;17.916;2022-12-17T00:21:00;101448.86;;;-4.99;81.58
76726;BME280;65651;53.154;17.916;2022-12-17T00:23:46;101449.70;;;-4.98;81.62
76726;BME280;65651;53.154;17.916;2022-12-17T00:26:34;101448.52;;;-5.00;81.68
76726;BME280;65651;53.154;17.916;2022-12-17T00:29:20;101449.05;;;-5.00;81.66
76726;BME280;65651;53.154;17.916;2022-12-17T00:32:08;101453.19;;;-4.97;81.69
76726;BME280;65651;53.154;17.916;2022-12-17T00:34:54;101457.48;;;-4.93;81.71
76726;BME280;65651;53.154;17.916;2022-12-17T00:37:41;101462.89;;;-4.90;81.70
76726;BME280;65651;53.154;17.916;2022-12-17T00:40:28;101456.70;;;-4.88;81.60
76726;BME280;65651;53.154;17.916;2022-12-17T00:43:14;101460.70;;;-4.87;81.74
76726;BME280;65651;53.154;17.916;2022-12-17T00:46:00;101462.47;;;-4.87;81.81
76726;BME280;65651;53.154;17.916;2022-12-17T00:48:48;101463.17;;;-4.88;81.78
76726;BME280;65651;53.154;17.916;2022-12-17T00:51:34;101467.23;;;-4.89;81.84
76726;BME280;65651;53.154;17.916;2022-12-17T00:54:20;101467.55;;;-4.88;81.87
76726;BME280;65651;53.154;17.916;2022-12-17T00:57:06;101463.50;;;-4.87;81.94
76726;BME280;65651;53.154;17.916;2022-12-17T00:59:53;101460.69;;;-4.86;81.86
76726;BME280;65651;53.154;17.916;2022-12-17T01:02:39;101464.55;;;-4.86;81.93
76726;BME280;65651;53.154;17.916;2022-12-17T01:05:26;101476.77;;;-4.83;81.92
76726;BME280;65651;53.154;17.916;2022-12-17T01:08:14;101477.67;;;-4.86;82.07
76726;BME280;65651;53.154;17.916;2022-12-17T01:11:04;101485.72;;;-4.84;81.92
76726;BME280;65651;53.154;17.916;2022-12-17T01:13:50;101488.12;;;-4.82;82.04
76726;BME280;65651;53.154;17.916;2022-12-17T01:16:36;101491.45;;;-4.82;81.99
76726;BME280;65651;53.154;17.916;2022-12-17T01:19:23;101498.94;;;-4.80;82.00
76726;BME280;65651;53.154;17.916;2022-12-17T01:22:08;101503.25;;;-4.76;82.02
76726;BME280;65651;53.154;17.916;2022-12-17T01:24:54;101504.44;;;-4.74;81.83
76726;BME280;65651;53.154;17.916;2022-12-17T01:27:40;101506.15;;;-4.72;81.94
76726;BME280;65651;53.154;17.916;2022-12-17T01:30:27;101510.29;;;-4.68;82.02
76726;BME280;65651;53.154;17.916;2022-12-17T01:33:13;101511.84;;;-4.66;82.10
76726;BME280;65651;53.154;17.916;2022-12-17T01:35:59;101514.81;;;-4.66;82.11
76726;BME280;65651;53.154;17.916;2022-12-17T01:38:45;101516.00;;;-4.64;82.16
76726;BME280;65651;53.154;17.916;2022-12-17T01:41:31;101513.48;;;-4.62;82.21
76726;BME280;65651;53.154;17.916;2022-12-17T01:47:44;101521.27;;;-4.55;82.31
76726;BME280;65651;53.154;17.916;2022-12-17T01:50:35;101515.22;;;-4.50;82.28
76726;BME280;65651;53.154;17.916;2022-12-17T01:53:25;101511.45;;;-4.45;82.37
76726;BME280;65651;53.154;17.916;2022-12-17T01:56:12;101511.15;;;-4.39;82.34
76726;BME280;65651;53.154;17.916;2022-12-17T01:58:58;101499.80;;;-4.32;82.38
76726;BME280;65651;53.154;17.916;2022-12-17T02:01:45;101502.67;;;-4.27;82.41
76726;BME280;65651;53.154;17.916;2022-12-17T02:04:31;101502.23;;;-4.22;82.51
76726;BME280;65651;53.154;17.916;2022-12-17T02:10:32;101501.73;;;-4.15;82.33
76726;BME280;65651;53.154;17.916;2022-12-17T02:13:30;101508.93;;;-4.15;82.39
76726;BME280;65651;53.154;17.916;2022-12-17T02:25:47;101508.16;;;-4.11;82.44
76726;BME280;65651;53.154;17.916;2022-12-17T02:28:38;101503.16;;;-4.08;82.49
76726;BME280;65651;53.154;17.916;2022-12-17T02:31:28;101503.45;;;-4.04;82.59
76726;BME280;65651;53.154;17.916;2022-12-17T02:34:14;101506.86;;;-3.99;82.67
76726;BME280;65651;53.154;17.916;2022-12-17T02:37:01;101504.13;;;-3.94;82.57
76726;BME280;65651;53.154;17.916;2022-12-17T02:39:47;101507.57;;;-3.91;82.54
76726;BME280;65651;53.154;17.916;2022-12-17T02:42:34;101510.43;;;-3.86;82.56
76726;BME280;65651;53.154;17.916;2022-12-17T02:45:22;101508.95;;;-3.83;82.74
76726;BME280;65651;53.154;17.916;2022-12-17T02:48:08;101510.32;;;-3.81;82.73
76726;BME280;65651;53.154;17.916;2022-12-17T02:50:57;101512.42;;;-3.81;82.67
76726;BME280;65651;53.154;17.916;2022-12-17T02:53:49;101515.05;;;-3.80;82.72
76726;BME280;65651;53.154;17.916;2022-12-17T02:56:47;101519.73;;;-3.78;82.74
76726;BME280;65651;53.154;17.916;2022-12-17T02:59:36;101518.23;;;-3.73;82.72
76726;BME280;65651;53.154;17.916;2022-12-17T03:02:23;101518.48;;;-3.69;82.80
76726;BME280;65651;53.154;17.916;2022-12-17T03:05:10;101520.29;;;-3.64;82.76
76726;BME280;65651;53.154;17.916;2022-12-17T03:07:55;101523.09;;;-3.63;82.85
76726;BME280;65651;53.154;17.916;2022-12-17T03:10:44;101523.11;;;-3.64;82.84
76726;BME280;65651;53.154;17.916;2022-12-17T03:13:30;101522.48;;;-3.68;82.79
76726;BME280;65651;53.154;17.916;2022-12-17T03:16:17;101519.91;;;-3.70;82.96
76726;BME280;65651;53.154;17.916;2022-12-17T03:19:03;101519.16;;;-3.68;82.88
76726;BME280;65651;53.154;17.916;2022-12-17T03:21:49;101518.73;;;-3.64;82.90
76726;BME280;65651;53.154;17.916;2022-12-17T03:24:35;101521.10;;;-3.60;82.90
76726;BME280;65651;53.154;17.916;2022-12-17T03:27:23;101520.85;;;-3.57;82.79
76726;BME280;65651;53.154;17.916;2022-12-17T03:30:10;101521.29;;;-3.53;82.96
76726;BME280;65651;53.154;17.916;2022-12-17T03:32:56;101521.73;;;-3.49;82.90
76726;BME280;65651;53.154;17.916;2022-12-17T03:35:42;101527.00;;;-3.50;82.80
76726;BME280;65651;53.154;17.916;2022-12-17T03:38:28;101527.21;;;-3.52;82.88
76726;BME280;65651;53.154;17.916;2022-12-17T03:41:14;101532.13;;;-3.52;82.82
76726;BME280;65651;53.154;17.916;2022-12-17T03:44:00;101530.52;;;-3.51;82.92
76726;BME280;65651;53.154;17.916;2022-12-17T03:46:46;101535.55;;;-3.47;82.79
76726;BME280;65651;53.154;17.916;2022-12-17T03:49:32;101537.60;;;-3.45;82.78
76726;BME280;65651;53.154;17.916;2022-12-17T03:52:18;101539.50;;;-3.43;82.91
76726;BME280;65651;53.154;17.916;2022-12-17T03:55:04;101540.15;;;-3.49;82.86
76726;BME280;65651;53.154;17.916;2022-12-17T03:57:50;101536.73;;;-3.54;82.81
76726;BME280;65651;53.154;17.916;2022-12-17T04:00:37;101537.11;;;-3.54;82.86
76726;BME280;65651;53.154;17.916;2022-12-17T04:03:23;101546.58;;;-3.54;82.81
76726;BME280;65651;53.154;17.916;2022-12-17T04:06:08;101550.31;;;-3.57;82.92
76726;BME280;65651;53.154;17.916;2022-12-17T04:08:54;101547.17;;;-3.57;82.94
76726;BME280;65651;53.154;17.916;2022-12-17T04:11:40;101545.21;;;-3.56;83.00
76726;BME280;65651;53.154;17.916;2022-12-17T04:14:26;101545.92;;;-3.57;83.01
76726;BME280;65651;53.154;17.916;2022-12-17T04:17:12;101548.26;;;-3.59;83.04
76726;BME280;65651;53.154;17.916;2022-12-17T04:19:58;101548.38;;;-3.57;82.97
76726;BME280;65651;53.154;17.916;2022-12-17T04:22:44;101546.58;;;-3.54;82.89
76726;BME280;65651;53.154;17.916;2022-12-17T04:25:30;101548.84;;;-3.53;82.93
76726;BME280;65651;53.154;17.916;2022-12-17T04:28:16;101548.89;;;-3.55;82.93
76726;BME280;65651;53.154;17.916;2022-12-17T04:31:02;101547.55;;;-3.59;82.91
76726;BME280;65651;53.154;17.916;2022-12-17T04:33:48;101556.52;;;-3.59;82.92
76726;BME280;65651;53.154;17.916;2022-12-17T04:36:34;101554.77;;;-3.59;83.04
76726;BME280;65651;53.154;17.916;2022-12-17T04:39:20;101553.17;;;-3.59;82.89
76726;BME280;65651;53.154;17.916;2022-12-17T04:42:06;101556.52;;;-3.59;83.04
76726;BME280;65651;53.154;17.916;2022-12-17T04:44:52;101560.88;;;-3.58;82.99
76726;BME280;65651;53.154;17.916;2022-12-17T04:47:38;101560.50;;;-3.57;82.96
76726;BME280;65651;53.154;17.916;2022-12-17T04:50:24;101566.57;;;-3.53;83.05
76726;BME280;65651;53.154;17.916;2022-12-17T04:53:10;101571.63;;;-3.53;83.11
76726;BME280;65651;53.154;17.916;2022-12-17T04:55:56;101578.25;;;-3.49;83.04
76726;BME280;65651;53.154;17.916;2022-12-17T04:58:42;101581.88;;;-3.47;83.12
76726;BME280;65651;53.154;17.916;2022-12-17T05:01:28;101586.89;;;-3.44;83.02
76726;BME280;65651;53.154;17.916;2022-12-17T05:04:14;101589.52;;;-3.43;83.05
76726;BME280;65651;53.154;17.916;2022-12-17T05:07:00;101595.45;;;-3.41;83.18
76726;BME280;65651;53.154;17.916;2022-12-17T05:10:03;101599.95;;;-3.39;83.25
76726;BME280;65651;53.154;17.916;2022-12-17T05:13:00;101604.45;;;-3.36;83.08
76726;BME280;65651;53.154;17.916;2022-12-17T05:15:46;101601.66;;;-3.36;83.06
76726;BME280;65651;53.154;17.916;2022-12-17T05:18:32;101603.23;;;-3.36;83.24
76726;BME280;65651;53.154;17.916;2022-12-17T05:21:18;101605.20;;;-3.39;83.09
76726;BME280;65651;53.154;17.916;2022-12-17T05:24:06;101610.62;;;-3.37;83.09
76726;BME280;65651;53.154;17.916;2022-12-17T05:26:52;101614.39;;;-3.33;83.07
76726;BME280;65651;53.154;17.916;2022-12-17T05:29:38;101619.55;;;-3.28;83.13
76726;BME280;65651;53.154;17.916;2022-12-17T05:32:24;101622.30;;;-3.25;83.03
76726;BME280;65651;53.154;17.916;2022-12-17T05:35:10;101626.58;;;-3.21;83.20
76726;BME280;65651;53.154;17.916;2022-12-17T05:38:03;101630.21;;;-3.17;83.07
76726;BME280;65651;53.154;17.916;2022-12-17T05:40:49;101633.49;;;-3.16;83.15
76726;BME280;65651;53.154;17.916;2022-12-17T05:43:36;101638.94;;;-3.15;83.26
76726;BME280;65651;53.154;17.916;2022-12-17T05:46:21;101641.52;;;-3.13;83.19
76726;BME280;65651;53.154;17.916;2022-12-17T05:49:07;101640.93;;;-3.10;83.17
76726;BME280;65651;53.154;17.916;2022-12-17T05:51:54;101642.42;;;-3.06;83.06
76726;BME280;65651;53.154;17.916;2022-12-17T05:54:39;101644.84;;;-3.04;83.18
76726;BME280;65651;53.154;17.916;2022-12-17T05:57:26;101646.39;;;-3.04;83.07
76726;BME280;65651;53.154;17.916;2022-12-17T06:00:12;101652.48;;;-3.02;83.05
76726;BME280;65651;53.154;17.916;2022-12-17T06:03:02;101661.09;;;-3.01;83.16
76726;BME280;65651;53.154;17.916;2022-12-17T06:05:55;101668.48;;;-3.02;83.20
76726;BME280;65651;53.154;17.916;2022-12-17T06:08:42;101671.79;;;-3.00;83.12
76726;BME280;65651;53.154;17.916;2022-12-17T06:11:28;101674.39;;;-2.99;83.05
76726;BME280;65651;53.154;17.916;2022-12-17T06:14:14;101677.48;;;-2.96;83.28
76726;BME280;65651;53.154;17.916;2022-12-17T06:17:00;101676.77;;;-2.95;83.04
76726;BME280;65651;53.154;17.916;2022-12-17T06:19:46;101682.39;;;-2.95;83.04
76726;BME280;65651;53.154;17.916;2022-12-17T06:22:32;101686.05;;;-2.93;83.08
76726;BME280;65651;53.154;17.916;2022-12-17T06:25:18;101686.20;;;-2.92;83.08
76726;BME280;65651;53.154;17.916;2022-12-17T06:28:04;101689.11;;;-2.89;83.18
76726;BME280;65651;53.154;17.916;2022-12-17T06:30:52;101696.59;;;-2.86;83.18
76726;BME280;65651;53.154;17.916;2022-12-17T06:33:39;101697.93;;;-2.83;82.97
76726;BME280;65651;53.154;17.916;2022-12-17T06:36:25;101699.48;;;-2.81;83.13
76726;BME280;65651;53.154;17.916;2022-12-17T06:39:11;101703.87;;;-2.81;82.96
76726;BME280;65651;53.154;17.916;2022-12-17T06:41:57;101701.45;;;-2.83;83.14
76726;BME280;65651;53.154;17.916;2022-12-17T06:44:43;101702.68;;;-2.84;82.98
76726;BME280;65651;53.154;17.916;2022-12-17T06:47:30;101703.40;;;-2.84;82.95
76726;BME280;65651;53.154;17.916;2022-12-17T06:50:19;101712.51;;;-2.82;82.88
76726;BME280;65651;53.154;17.916;2022-12-17T06:53:06;101715.14;;;-2.82;82.81
76726;BME280;65651;53.154;17.916;2022-12-17T06:55:57;101719.15;;;-2.81;82.87
76726;BME280;65651;53.154;17.916;2022-12-17T06:58:43;101720.73;;;-2.81;83.02
76726;BME280;65651;53.154;17.916;2022-12-17T07:01:29;101726.70;;;-2.81;83.05
76726;BME280;65651;53.154;17.916;2022-12-17T07:04:15;101730.11;;;-2.85;82.97
76726;BME280;65651;53.154;17.916;2022-12-17T07:07:04;101730.20;;;-2.88;82.82
76726;BME280;65651;53.154;17.916;2022-12-17T07:09:49;101733.83;;;-2.94;82.85
76726;BME280;65651;53.154;17.916;2022-12-17T07:12:36;101734.77;;;-2.97;82.83
76726;BME280;65651;53.154;17.916;2022-12-17T07:15:21;101734.98;;;-2.99;82.82
76726;BME280;65651;53.154;17.916;2022-12-17T07:18:19;101740.05;;;-2.98;82.78
76726;BME280;65651;53.154;17.916;2022-12-17T07:21:04;101742.62;;;-2.94;82.84
76726;BME280;65651;53.154;17.916;2022-12-17T07:23:50;101745.20;;;-2.92;82.77
76726;BME280;65651;53.154;17.916;2022-12-17T07:26:37;101750.80;;;-2.91;82.76
76726;BME280;65651;53.154;17.916;2022-12-17T07:29:23;101752.86;;;-2.89;82.90
76726;BME280;65651;53.154;17.916;2022-12-17T07:32:09;101756.91;;;-2.89;82.73
76726;BME280;65651;53.154;17.916;2022-12-17T07:34:55;101761.33;;;-2.90;82.90
76726;BME280;65651;53.154;17.916;2022-12-17T07:37:41;101768.17;;;-2.90;82.80
76726;BME280;65651;53.154;17.916;2022-12-17T07:40:27;101771.66;;;-2.88;82.73
76726;BME280;65651;53.154;17.916;2022-12-17T07:43:14;101776.99;;;-2.83;82.71
76726;BME280;65651;53.154;17.916;2022-12-17T07:46:00;101780.27;;;-2.80;82.76
76726;BME280;65651;53.154;17.916;2022-12-17T07:48:46;101780.22;;;-2.78;82.60
76726;BME280;65651;53.154;17.916;2022-12-17T07:51:34;101782.78;;;-2.74;82.74
76726;BME280;65651;53.154;17.916;2022-12-17T07:54:19;101783.42;;;-2.71;82.53
76726;BME280;65651;53.154;17.916;2022-12-17T07:57:05;101784.02;;;-2.66;82.59
76726;BME280;65651;53.154;17.916;2022-12-17T07:59:54;101791.13;;;-2.62;82.44
76726;BME280;65651;53.154;17.916;2022-12-17T08:02:40;101792.27;;;-2.59;82.26
76726;BME280;65651;53.154;17.916;2022-12-17T08:05:26;101796.30;;;-2.57;82.33
76726;BME280;65651;53.154;17.916;2022-12-17T08:08:13;101798.62;;;-2.51;82.37
76726;BME280;65651;53.154;17.916;2022-12-17T08:10:59;101805.04;;;-2.48;82.36
76726;BME280;65651;53.154;17.916;2022-12-17T08:13:45;101805.35;;;-2.46;82.31
76726;BME280;65651;53.154;17.916;2022-12-17T08:16:31;101806.48;;;-2.41;82.27
76726;BME280;65651;53.154;17.916;2022-12-17T08:19:19;101808.82;;;-2.35;82.30
76726;BME280;65651;53.154;17.916;2022-12-17T08:22:05;101812.99;;;-2.26;82.17
76726;BME280;65651;53.154;17.916;2022-12-17T08:24:51;101814.73;;;-2.18;82.23
76726;BME280;65651;53.154;17.916;2022-12-17T08:27:37;101812.99;;;-2.11;82.08
76726;BME280;65651;53.154;17.916;2022-12-17T08:30:23;101818.63;;;-2.03;81.81
76726;BME280;65651;53.154;17.916;2022-12-17T08:33:09;101821.50;;;-1.99;82.04
76726;BME280;65651;53.154;17.916;2022-12-17T08:35:56;101826.27;;;-1.92;82.08
76726;BME280;65651;53.154;17.916;2022-12-17T08:38:45;101828.92;;;-1.85;82.10
76726;BME280;65651;53.154;17.916;2022-12-17T08:41:30;101837.31;;;-1.82;81.73
76726;BME280;65651;53.154;17.916;2022-12-17T08:44:16;101838.27;;;-1.86;81.64
76726;BME280;65651;53.154;17.916;2022-12-17T08:47:02;101841.17;;;-1.89;81.44
76726;BME280;65651;53.154;17.916;2022-12-17T08:49:48;101841.52;;;-1.89;81.65
76726;BME280;65651;53.154;17.916;2022-12-17T08:52:34;101847.02;;;-1.84;81.66
76726;BME280;65651;53.154;17.916;2022-12-17T08:55:22;101847.33;;;-1.75;81.68
76726;BME280;65651;53.154;17.916;2022-12-17T08:58:08;101849.45;;;-1.68;81.60
76726;BME280;65651;53.154;17.916;2022-12-17T09:00:57;101847.70;;;-1.62;81.32
76726;BME280;65651;53.154;17.916;2022-12-17T09:03:46;101850.23;;;-1.56;81.42
76726;BME280;65651;53.154;17.916;2022-12-17T09:06:32;101850.11;;;-1.52;81.46
76726;BME280;65651;53.154;17.916;2022-12-17T09:09:18;101852.36;;;-1.43;81.37
76726;BME280;65651;53.154;17.916;2022-12-17T09:12:04;101845.88;;;-1.38;81.31
76726;BME280;65651;53.154;17.916;2022-12-17T09:14:50;101846.99;;;-1.33;81.18
76726;BME280;65651;53.154;17.916;2022-12-17T09:17:36;101848.08;;;-1.28;80.82
76726;BME280;65651;53.154;17.916;2022-12-17T09:20:22;101852.15;;;-1.28;80.78
76726;BME280;65651;53.154;17.916;2022-12-17T09:23:08;101855.36;;;-1.30;80.74
76726;BME280;65651;53.154;17.916;2022-12-17T09:25:56;101861.93;;;-1.32;80.53
76726;BME280;65651;53.154;17.916;2022-12-17T09:28:42;101864.25;;;-1.33;80.69
76726;BME280;65651;53.154;17.916;2022-12-17T09:31:29;101865.29;;;-1.26;80.81
76726;BME280;65651;53.154;17.916;2022-12-17T09:34:16;101865.45;;;-1.19;80.62
76726;BME280;65651;53.154;17.916;2022-12-17T09:37:06;101870.20;;;-1.19;80.57
76726;BME280;65651;53.154;17.916;2022-12-17T09:39:52;101878.42;;;-1.23;80.42
76726;BME280;65651;53.154;17.916;2022-12-17T09:43:05;101880.02;;;-1.31;80.26
76726;BME280;65651;53.154;17.916;2022-12-17T09:45:55;101880.59;;;-1.32;80.34
76726;BME280;65651;53.154;17.916;2022-12-17T09:51:44;101882.65;;;-1.17;80.13
76726;BME280;65651;53.154;17.916;2022-12-17T09:54:40;101877.14;;;-1.07;80.39
76726;BME280;65651;53.154;17.916;2022-12-17T09:57:33;101880.38;;;-1.03;80.32
76726;BME280;65651;53.154;17.916;2022-12-17T10:00:30;101882.65;;;-1.03;80.10
76726;BME280;65651;53.154;17.916;2022-12-17T10:03:19;101885.11;;;-1.09;79.98
76726;BME280;65651;53.154;17.916;2022-12-17T10:06:16;101891.06;;;-1.14;79.59
76726;BME280;65651;53.154;17.916;2022-12-17T10:09:11;101890.73;;;-1.15;79.52
76726;BME280;65651;53.154;17.916;2022-12-17T10:12:13;101889.41;;;-1.19;79.45
76726;BME280;65651;53.154;17.916;2022-12-17T10:15:01;101893.05;;;-1.17;79.43
76726;BME280;65651;53.154;17.916;2022-12-17T10:17:47;101895.48;;;-1.15;79.21
76726;BME280;65651;53.154;17.916;2022-12-17T10:20:46;101901.87;;;-1.11;79.45
76726;BME280;65651;53.154;17.916;2022-12-17T10:23:34;101905.20;;;-1.09;79.58
76726;BME280;65651;53.154;17.916;2022-12-17T10:26:32;101905.80;;;-1.05;79.42
76726;BME280;65651;53.154;17.916;2022-12-17T10:29:23;101902.55;;;-0.96;79.51
76726;BME280;65651;53.154;17.916;2022-12-17T10:35:18;101911.05;;;-0.97;79.28
76726;BME280;65651;53.154;17.916;2022-12-17T10:41:27;101912.43;;;-0.96;79.42
76726;BME280;65651;53.154;17.916;2022-12-17T10:44:25;101905.27;;;-0.92;79.32
76726;BME280;65651;53.154;17.916;2022-12-17T10:47:19;101907.17;;;-0.91;79.38
76726;BME280;65651;53.154;17.916;2022-12-17T10:53:04;101911.20;;;-0.84;79.13
76726;BME280;65651;53.154;17.916;2022-12-17T10:55:55;101912.29;;;-0.84;79.01
76726;BME280;65651;53.154;17.916;2022-12-17T10:58:44;101915.96;;;-0.90;78.86
76726;BME280;65651;53.154;17.916;2022-12-17T11:01:31;101921.60;;;-0.96;78.68
76726;BME280;65651;53.154;17.916;2022-12-17T11:04:31;101922.77;;;-1.00;78.57
76726;BME280;65651;53.154;17.916;2022-12-17T11:10:15;101923.04;;;-1.11;78.42
76726;BME280;65651;53.154;17.916;2022-12-17T11:13:07;101923.52;;;-1.09;78.48
76726;BME280;65651;53.154;17.916;2022-12-17T11:15:56;101924.45;;;-1.04;78.47
76726;BME280;65651;53.154;17.916;2022-12-17T11:21:47;101928.71;;;-0.99;78.37
76726;BME280;65651;53.154;17.916;2022-12-17T11:27:43;101934.64;;;-0.90;78.55
76726;BME280;65651;53.154;17.916;2022-12-17T11:30:33;101928.33;;;-0.85;78.58
76726;BME280;65651;53.154;17.916;2022-12-17T11:33:48;101932.60;;;-0.86;78.13
76726;BME280;65651;53.154;17.916;2022-12-17T11:36:49;101928.40;;;-0.87;78.31
76726;BME280;65651;53.154;17.916;2022-12-17T11:49:03;101936.98;;;-0.91;78.18
76726;BME280;65651;53.154;17.916;2022-12-17T11:58:06;101942.77;;;-0.84;78.29
76726;BME280;65651;53.154;17.916;2022-12-17T12:01:18;101940.15;;;-0.78;78.34
76726;BME280;65651;53.154;17.916;2022-12-17T12:10:34;101936.46;;;-0.66;78.29
76726;BME280;65651;53.154;17.916;2022-12-17T12:13:42;101931.77;;;-0.69;78.17
76726;BME280;65651;53.154;17.916;2022-12-17T12:19:40;101932.53;;;-0.76;78.13
76726;BME280;65651;53.154;17.916;2022-12-17T12:34:40;101945.94;;;-1.11;78.40
76726;BME280;65651;53.154;17.916;2022-12-17T12:37:29;101945.38;;;-1.16;78.48
76726;BME280;65651;53.154;17.916;2022-12-17T12:40:27;101941.95;;;-1.20;78.48
76726;BME280;65651;53.154;17.916;2022-12-17T12:43:25;101944.79;;;-1.21;78.52
76726;BME280;65651;53.154;17.916;2022-12-17T12:46:32;101952.02;;;-1.21;78.48
76726;BME280;65651;53.154;17.916;2022-12-17T12:49:34;101950.05;;;-1.20;78.68
76726;BME280;65651;53.154;17.916;2022-12-17T12:52:25;101957.44;;;-1.20;78.81
76726;BME280;65651;53.154;17.916;2022-12-17T12:55:15;101958.77;;;-1.17;78.46
76726;BME280;65651;53.154;17.916;2022-12-17T12:58:23;101961.23;;;-1.17;78.62
76726;BME280;65651;53.154;17.916;2022-12-17T13:01:10;101960.36;;;-1.17;78.49
76726;BME280;65651;53.154;17.916;2022-12-17T13:03:59;101956.30;;;-1.17;78.60
76726;BME280;65651;53.154;17.916;2022-12-17T13:06:52;101956.84;;;-1.17;78.55
76726;BME280;65651;53.154;17.916;2022-12-17T13:14:34;101969.10;;;-1.21;78.75
76726;BME280;65651;53.154;17.916;2022-12-17T13:17:29;101972.29;;;-1.22;78.68
76726;BME280;65651;53.154;17.916;2022-12-17T13:22:31;101976.38;;;-1.24;78.65
76726;BME280;65651;53.154;17.916;2022-12-17T13:25:15;101975.91;;;-1.26;78.71
76726;BME280;65651;53.154;17.916;2022-12-17T13:27:43;101974.88;;;-1.27;78.88
76726;BME280;65651;53.154;17.916;2022-12-17T13:41:07;102002.13;;;-1.32;78.90
76726;BME280;65651;53.154;17.916;2022-12-17T13:48:52;102015.73;;;-1.33;78.76
76726;BME280;65651;53.154;17.916;2022-12-17T13:51:22;102024.26;;;-1.38;78.96
76726;BME280;65651;53.154;17.916;2022-12-17T13:53:55;102025.40;;;-1.41;79.07
76726;BME280;65651;53.154;17.916;2022-12-17T13:56:29;102030.55;;;-1.43;79.06
76726;BME280;65651;53.154;17.916;2022-12-17T13:58:58;102029.60;;;-1.48;79.15
76726;BME280;65651;53.154;17.916;2022-12-17T14:01:25;102034.75;;;-1.50;79.18
76726;BME280;65651;53.154;17.916;2022-12-17T14:04:00;102034.97;;;-1.51;79.03
76726;BME280;65651;53.154;17.916;2022-12-17T14:06:32;102040.30;;;-1.54;79.02
76726;BME280;65651;53.154;17.916;2022-12-17T14:09:01;102042.09;;;-1.55;79.16
76726;BME280;65651;53.154;17.916;2022-12-17T14:11:29;102045.66;;;-1.57;79.13
76726;BME280;65651;53.154;17.916;2022-12-17T14:14:30;102049.15;;;-1.56;79.22
76726;BME280;65651;53.154;17.916;2022-12-17T14:16:58;102053.24;;;-1.57;79.21
76726;BME280;65651;53.154;17.916;2022-12-17T14:19:26;102055.70;;;-1.57;79.34
76726;BME280;65651;53.154;17.916;2022-12-17T14:21:55;102059.26;;;-1.59;79.20
76726;BME280;65651;53.154;17.916;2022-12-17T14:24:24;102069.72;;;-1.63;79.31
76726;BME280;65651;53.154;17.916;2022-12-17T14:26:59;102074.02;;;-1.67;79.39
76726;BME280;65651;53.154;17.916;2022-12-17T14:29:29;102079.02;;;-1.69;79.32
76726;BME280;65651;53.154;17.916;2022-12-17T14:32:02;102078.79;;;-1.75;79.38
76726;BME280;65651;53.154;17.916;2022-12-17T14:34:47;102083.09;;;-1.79;79.41
76726;BME280;65651;53.154;17.916;2022-12-17T14:37:24;102080.42;;;-1.86;79.47
76726;BME280;65651;53.154;17.916;2022-12-17T14:39:56;102084.58;;;-1.92;79.50
76726;BME280;65651;53.154;17.916;2022-12-17T14:42:25;102091.54;;;-1.97;79.58
76726;BME280;65651;53.154;17.916;2022-12-17T14:45:00;102094.42;;;-2.01;79.56
76726;BME280;65651;53.154;17.916;2022-12-17T14:47:30;102093.08;;;-2.04;79.77
76726;BME280;65651;53.154;17.916;2022-12-17T14:52:44;102092.02;;;-2.12;79.66
76726;BME280;65651;53.154;17.916;2022-12-17T14:55:26;102090.46;;;-2.15;79.75
76726;BME280;65651;53.154;17.916;2022-12-17T14:58:07;102099.95;;;-2.13;79.90
76726;BME280;65651;53.154;17.916;2022-12-17T15:00:50;102100.14;;;-2.14;79.85
76726;BME280;65651;53.154;17.916;2022-12-17T15:03:26;102105.77;;;-2.15;80.09
76726;BME280;65651;53.154;17.916;2022-12-17T15:06:03;102103.20;;;-2.18;79.89
76726;BME280;65651;53.154;17.916;2022-12-17T15:08:41;102103.61;;;-2.22;79.94
76726;BME280;65651;53.154;17.916;2022-12-17T15:11:11;102104.91;;;-2.25;79.98
76726;BME280;65651;53.154;17.916;2022-12-17T15:13:39;102110.59;;;-2.29;80.04
76726;BME280;65651;53.154;17.916;2022-12-17T15:16:07;102121.91;;;-2.32;79.87
76726;BME280;65651;53.154;17.916;2022-12-17T15:18:35;102117.23;;;-2.36;80.07
76726;BME280;65651;53.154;17.916;2022-12-17T15:21:02;102114.66;;;-2.39;80.11
76726;BME280;65651;53.154;17.916;2022-12-17T15:23:30;102120.45;;;-2.38;80.12
76726;BME280;65651;53.154;17.916;2022-12-17T15:25:58;102123.10;;;-2.40;80.28
76726;BME280;65651;53.154;17.916;2022-12-17T15:28:25;102121.56;;;-2.42;80.26
76726;BME280;65651;53.154;17.916;2022-12-17T15:30:52;102125.49;;;-2.46;80.22
76726;BME280;65651;53.154;17.916;2022-12-17T15:33:20;102127.84;;;-2.50;80.15
76726;BME280;65651;53.154;17.916;2022-12-17T15:35:47;102129.69;;;-2.55;80.26
76726;BME280;65651;53.154;17.916;2022-12-17T15:38:14;102137.14;;;-2.59;80.41
76726;BME280;65651;53.154;17.916;2022-12-17T15:40:41;102128.95;;;-2.63;80.38
76726;BME280;65651;53.154;17.916;2022-12-17T15:43:11;102120.06;;;-2.69;80.45
76726;BME280;65651;53.154;17.916;2022-12-17T15:45:46;102124.42;;;-2.77;80.41
76726;BME280;65651;53.154;17.916;2022-12-17T15:48:20;102124.55;;;-2.85;80.59
76726;BME280;65651;53.154;17.916;2022-12-17T15:50:49;102125.34;;;-2.91;80.63
76726;BME280;65651;53.154;17.916;2022-12-17T15:53:19;102131.38;;;-2.96;80.59
76726;BME280;65651;53.154;17.916;2022-12-17T15:55:47;102130.75;;;-3.01;80.63